createdAt,value
2018-10-02T00:02:12.645Z,11.32
2018-10-02T00:04:43.296Z,11.31
2018-10-02T00:07:14.417Z,11.36
2018-10-02T00:09:45.611Z,11.28
2018-10-02T00:12:21.298Z,11.26
2018-10-02T00:14:51.830Z,11.25
2018-10-02T00:17:25.499Z,11.23
2018-10-02T00:19:56.753Z,11.25
2018-10-02T00:22:27.077Z,11.25
2018-10-02T00:24:57.609Z,11.27
2018-10-02T00:27:28.181Z,11.29
2018-10-02T00:29:58.456Z,11.29
2018-10-02T00:32:29.186Z,11.27
2018-10-02T00:34:59.883Z,11.17
2018-10-02T00:37:30.641Z,11.24
2018-10-02T00:40:01.493Z,11.21
2018-10-02T00:42:31.742Z,11.20
2018-10-02T00:45:02.268Z,11.22
2018-10-02T00:47:33.061Z,11.17
2018-10-02T00:50:03.917Z,11.06
2018-10-02T00:52:34.445Z,11.06
2018-10-02T00:55:05.553Z,11.05
2018-10-02T00:57:36.069Z,10.95
2018-10-02T01:00:07.608Z,10.98
2018-10-02T01:02:38.376Z,10.99
2018-10-02T01:05:08.740Z,11.01
2018-10-02T01:07:39.268Z,11.05
2018-10-02T01:10:09.799Z,11.01
2018-10-02T01:12:40.839Z,10.90
2018-10-02T01:15:11.340Z,11.00
2018-10-02T01:17:41.606Z,11.07
2018-10-02T01:20:12.110Z,10.86
2018-10-02T01:22:42.639Z,10.83
2018-10-02T01:25:12.886Z,10.81
2018-10-02T01:27:43.406Z,10.74
2018-10-02T01:30:13.942Z,10.79
2018-10-02T01:32:44.535Z,10.80
2018-10-02T01:35:15.282Z,10.92
2018-10-02T01:37:45.811Z,10.78
2018-10-02T01:40:16.399Z,10.75
2018-10-02T01:42:46.931Z,10.77
2018-10-02T01:45:17.453Z,10.72
2018-10-02T01:47:48.050Z,10.70
2018-10-02T01:50:18.805Z,10.88
2018-10-02T01:52:49.513Z,10.90
2018-10-02T01:55:19.851Z,10.87
2018-10-02T01:57:50.523Z,10.82
2018-10-02T02:00:21.333Z,10.66
2018-10-02T02:02:51.694Z,10.65
2018-10-02T02:05:22.572Z,10.63
2018-10-02T02:07:53.081Z,10.59
2018-10-02T02:10:23.334Z,10.71
2018-10-02T02:12:53.579Z,10.62
2018-10-02T02:15:24.214Z,10.57
2018-10-02T02:17:54.891Z,10.61
2018-10-02T02:20:25.127Z,10.57
2018-10-02T02:22:56.096Z,10.43
2018-10-02T02:25:27.233Z,10.55
2018-10-02T02:27:58.804Z,10.47
2018-10-02T02:30:29.384Z,10.52
2018-10-02T02:32:59.930Z,10.50
2018-10-02T02:35:30.455Z,10.43
2018-10-02T02:38:01.288Z,10.37
2018-10-02T02:40:31.556Z,10.47
2018-10-02T02:43:02.148Z,10.42
2018-10-02T02:45:32.725Z,10.36
2018-10-02T02:48:08.276Z,10.48
2018-10-02T02:50:46.231Z,10.45
2018-10-02T02:53:18.044Z,10.44
2018-10-02T02:55:48.837Z,10.41
2018-10-02T02:58:19.507Z,10.57
2018-10-02T03:00:50.085Z,10.54
2018-10-02T03:03:20.794Z,10.60
2018-10-02T03:05:51.366Z,10.55
2018-10-02T03:08:22.724Z,10.42
2018-10-02T03:10:52.959Z,10.50
2018-10-02T03:13:23.470Z,10.54
2018-10-02T03:15:54.214Z,10.59
2018-10-02T03:18:24.440Z,10.81
2018-10-02T03:20:54.687Z,10.82
2018-10-02T03:23:25.253Z,10.79
2018-10-02T03:25:55.777Z,10.67
2018-10-02T03:28:27.403Z,10.57
2018-10-02T03:30:57.939Z,10.50
2018-10-02T03:33:28.501Z,10.39
2018-10-02T03:35:59.492Z,10.44
2018-10-02T03:38:30.309Z,10.38
2018-10-02T03:41:00.604Z,10.42
2018-10-02T03:43:30.950Z,10.35
2018-10-02T03:46:01.457Z,10.24
2018-10-02T03:48:31.723Z,10.31
2018-10-02T03:51:02.324Z,10.36
2018-10-02T03:53:32.622Z,10.32
2018-10-02T03:56:03.805Z,10.35
2018-10-02T03:58:34.324Z,10.22
2018-10-02T04:01:05.185Z,10.33
2018-10-02T04:03:36.526Z,10.28
2018-10-02T04:06:07.214Z,10.21
2018-10-02T04:08:37.462Z,10.18
2018-10-02T04:11:08.106Z,10.03
2018-10-02T04:13:38.801Z,10.19
2018-10-02T04:16:09.229Z,10.20
2018-10-02T04:18:40.290Z,10.12
2018-10-02T04:21:11.590Z,10.06
2018-10-02T04:23:42.296Z,10.07
2018-10-02T04:26:12.797Z,10.12
2018-10-02T04:28:43.093Z,10.07
2018-10-02T04:31:13.620Z,10.12
2018-10-02T04:33:44.198Z,10.01
2018-10-02T04:36:14.933Z,10.14
2018-10-02T04:38:45.685Z,10.12
2018-10-02T04:41:17.530Z,10.10
2018-10-02T04:43:48.052Z,10.08
2018-10-02T04:46:18.655Z,10.03
2018-10-02T04:48:49.178Z,9.92
2018-10-02T04:51:20.133Z,9.94
2018-10-02T04:53:50.492Z,9.94
2018-10-02T04:56:20.922Z,9.82
2018-10-02T04:58:51.616Z,9.81
2018-10-02T05:01:22.183Z,9.88
2018-10-02T05:03:53.379Z,9.96
2018-10-02T05:06:24.065Z,9.90
2018-10-02T05:08:54.306Z,9.98
2018-10-02T05:11:25.184Z,9.97
2018-10-02T05:13:55.707Z,9.94
2018-10-02T05:16:25.930Z,9.98
2018-10-02T05:18:56.572Z,9.96
2018-10-02T05:21:27.096Z,9.91
2018-10-02T05:23:57.588Z,9.91
2018-10-02T05:26:28.127Z,9.87
2018-10-02T05:28:58.775Z,9.89
2018-10-02T05:31:31.032Z,9.86
2018-10-02T05:34:02.329Z,9.71
2018-10-02T05:36:32.853Z,9.79
2018-10-02T05:39:05.403Z,9.78
2018-10-02T05:41:35.904Z,9.77
2018-10-02T05:44:06.895Z,9.89
2018-10-02T05:46:37.608Z,9.88
2018-10-02T05:49:07.860Z,9.88
2018-10-02T05:51:39.004Z,9.97
2018-10-02T05:54:10.940Z,9.90
2018-10-02T05:56:42.164Z,9.95
2018-10-02T05:59:12.719Z,9.95
2018-10-02T06:01:43.594Z,10.01
2018-10-02T06:04:14.341Z,10.07
2018-10-02T06:06:44.894Z,9.96
2018-10-02T06:09:16.287Z,10.08
2018-10-02T06:11:46.890Z,10.12
2018-10-02T06:14:17.641Z,10.14
2018-10-02T06:16:48.820Z,10.01
2018-10-02T06:19:19.588Z,9.96
2018-10-02T06:21:54.150Z,9.99
2018-10-02T06:24:26.368Z,9.99
2018-10-02T06:26:56.974Z,10.07
2018-10-02T06:29:27.736Z,10.04
2018-10-02T06:31:57.991Z,9.96
2018-10-02T06:34:28.530Z,9.98
2018-10-02T06:36:59.636Z,9.99
2018-10-02T06:39:31.453Z,9.93
2018-10-02T06:42:02.604Z,10.01
2018-10-02T06:44:33.791Z,9.98
2018-10-02T06:47:04.750Z,9.93
2018-10-02T06:49:35.457Z,10.00
2018-10-02T06:52:06.193Z,9.87
2018-10-02T06:54:36.860Z,9.85
2018-10-02T06:57:07.269Z,9.90
2018-10-02T06:59:37.903Z,9.90
2018-10-02T07:02:08.453Z,10.01
2018-10-02T07:04:40.122Z,10.06
2018-10-02T07:07:11.543Z,10.04
2018-10-02T07:09:42.077Z,10.17
2018-10-02T07:12:12.681Z,10.21
2018-10-02T07:14:43.254Z,10.21
2018-10-02T07:17:13.726Z,10.23
2018-10-02T07:19:44.225Z,10.23
2018-10-02T07:22:14.817Z,10.24
2018-10-02T07:24:45.698Z,10.24
2018-10-02T07:27:17.511Z,10.18
2018-10-02T07:29:48.111Z,10.20
2018-10-02T07:32:18.658Z,10.31
2018-10-02T07:34:49.025Z,10.41
2018-10-02T07:37:19.577Z,10.69
2018-10-02T07:39:50.354Z,10.63
2018-10-02T07:42:20.915Z,10.81
2018-10-02T07:44:51.629Z,10.69
2018-10-02T07:47:22.353Z,10.76
2018-10-02T07:49:52.847Z,10.89
2018-10-02T07:52:23.339Z,10.91
2018-10-02T07:54:53.745Z,11.01
2018-10-02T07:57:24.290Z,10.85
2018-10-02T07:59:54.883Z,10.75
2018-10-02T08:02:25.580Z,10.60
2018-10-02T08:04:55.928Z,10.87
2018-10-02T08:07:26.483Z,10.85
2018-10-02T08:09:58.103Z,10.27
2018-10-02T08:12:28.789Z,11.16
2018-10-02T08:14:59.192Z,11.28
2018-10-02T08:17:29.643Z,10.97
2018-10-02T08:20:00.447Z,11.12
2018-10-02T08:22:31.812Z,11.01
2018-10-02T08:25:04.210Z,10.86
2018-10-02T08:27:35.066Z,10.81
2018-10-02T08:30:07.215Z,10.91
2018-10-02T08:32:37.854Z,10.87
2018-10-02T08:35:08.640Z,10.60
2018-10-02T08:37:39.345Z,10.75
2018-10-02T08:40:10.869Z,10.67
2018-10-02T08:42:43.118Z,10.80
2018-10-02T08:45:13.621Z,10.16
2018-10-02T08:47:44.141Z,10.05
2018-10-02T08:50:14.893Z,10.12
2018-10-02T08:52:45.395Z,10.10
2018-10-02T08:55:16.276Z,10.25
2018-10-02T08:57:47.143Z,10.26
2018-10-02T09:00:17.726Z,10.48
2018-10-02T09:02:48.557Z,9.67
2018-10-02T09:05:20.987Z,11.00
2018-10-02T09:07:51.888Z,11.35
2018-10-02T09:10:22.324Z,11.25
2018-10-02T09:12:52.994Z,11.20
2018-10-02T09:15:23.772Z,11.98
2018-10-02T09:17:54.450Z,13.76
2018-10-02T09:20:25.097Z,12.69
2018-10-02T09:23:00.129Z,12.42
2018-10-02T09:25:30.758Z,13.53
2018-10-02T09:28:01.383Z,12.92
2018-10-02T09:30:36.998Z,12.69
2018-10-02T09:33:13.741Z,11.69
2018-10-02T09:35:49.511Z,11.59
2018-10-02T09:38:24.941Z,11.48
2018-10-02T09:43:03.463Z,11.53
2018-10-02T09:45:34.250Z,10.80
2018-10-02T09:48:07.873Z,10.59
2018-10-02T09:50:39.785Z,10.33
2018-10-02T09:53:10.450Z,9.99
2018-10-02T09:55:40.754Z,9.67
2018-10-02T09:58:12.208Z,9.41
2018-10-02T10:00:47.957Z,9.41
2018-10-02T10:03:18.512Z,8.32
2018-10-02T10:05:49.019Z,8.18
2018-10-02T10:08:19.444Z,8.64
2018-10-02T10:10:50.338Z,8.48
2018-10-02T10:13:22.480Z,8.94
2018-10-02T10:15:52.975Z,9.44
2018-10-02T10:18:23.224Z,10.53
2018-10-02T10:20:53.984Z,14.59
2018-10-02T10:23:24.501Z,17.73
2018-10-02T10:25:54.786Z,18.72
2018-10-02T10:28:25.638Z,19.72
2018-10-02T10:30:56.341Z,20.06
2018-10-02T10:33:26.587Z,21.70
2018-10-02T10:35:57.717Z,21.20
2018-10-02T10:38:29.088Z,19.94
2018-10-02T10:40:59.774Z,19.41
2018-10-02T10:43:30.892Z,15.96
2018-10-02T10:46:01.821Z,14.76
2018-10-02T10:48:32.468Z,14.04
2018-10-02T10:51:03.339Z,13.94
2018-10-02T10:53:35.636Z,13.32
2018-10-02T10:56:06.252Z,12.63
2018-10-02T10:58:36.661Z,12.65
2018-10-02T11:01:07.922Z,12.60
2018-10-02T11:03:38.442Z,12.52
2018-10-02T11:06:09.115Z,12.67
2018-10-02T11:08:40.154Z,12.50
2018-10-02T11:11:10.784Z,12.44
2018-10-02T11:13:41.329Z,12.63
2018-10-02T11:16:11.941Z,12.58
2018-10-02T11:18:42.484Z,12.40
2018-10-02T11:21:13.309Z,12.94
2018-10-02T11:23:43.616Z,13.16
2018-10-02T11:26:15.201Z,13.32
2018-10-02T11:28:46.390Z,13.17
2018-10-02T11:31:16.940Z,13.57
2018-10-02T11:33:47.653Z,13.23
2018-10-02T11:36:18.240Z,13.16
2018-10-02T11:38:49.235Z,13.64
2018-10-02T11:41:19.756Z,13.97
2018-10-02T11:43:50.104Z,13.99
2018-10-02T11:46:20.792Z,14.72
2018-10-02T11:48:51.445Z,14.57
2018-10-02T11:51:21.970Z,13.84
2018-10-02T11:53:53.301Z,13.55
2018-10-02T11:56:23.842Z,13.21
2018-10-02T11:58:54.402Z,13.43
2018-10-02T12:01:24.950Z,12.96
2018-10-02T12:03:55.324Z,12.66
2018-10-02T12:06:26.187Z,12.44
2018-10-02T12:08:56.723Z,12.23
2018-10-02T12:11:27.571Z,12.00
2018-10-02T12:13:58.335Z,11.85
2018-10-02T12:16:28.957Z,11.93
2018-10-02T12:18:59.461Z,11.95
2018-10-02T12:21:29.682Z,12.05
2018-10-02T12:23:59.993Z,12.02
2018-10-02T12:26:30.669Z,12.00
2018-10-02T12:29:01.762Z,12.05
2018-10-02T12:31:32.373Z,12.06
2018-10-02T12:34:03.538Z,12.01
2018-10-02T12:36:34.120Z,11.81
2018-10-02T12:39:06.176Z,11.75
2018-10-02T12:41:36.821Z,11.84
2018-10-02T12:44:07.193Z,12.02
2018-10-02T12:46:37.782Z,12.10
2018-10-02T12:49:09.246Z,12.28
2018-10-02T12:51:39.979Z,12.39
2018-10-02T12:54:10.872Z,12.58
2018-10-02T12:56:41.702Z,13.23
2018-10-02T12:59:12.077Z,13.42
2018-10-02T13:01:43.957Z,13.82
2018-10-02T13:04:14.637Z,14.18
2018-10-02T13:06:45.020Z,13.91
2018-10-02T13:09:15.533Z,13.40
2018-10-02T13:11:46.258Z,13.03
2018-10-02T13:14:16.917Z,12.89
2018-10-02T13:16:47.816Z,12.78
2018-10-02T13:19:18.461Z,12.81
2018-10-02T13:21:49.083Z,12.65
2018-10-02T13:24:19.748Z,12.66
2018-10-02T13:26:50.301Z,12.48
2018-10-02T13:29:20.865Z,12.22
2018-10-02T13:31:51.117Z,12.35
2018-10-02T13:34:22.095Z,12.32
2018-10-02T13:36:52.796Z,12.26
2018-10-02T13:39:23.461Z,12.30
2018-10-02T13:41:54.010Z,13.04
2018-10-02T13:44:24.581Z,13.43
2018-10-02T13:46:54.818Z,13.62
2018-10-02T13:49:25.267Z,13.69
2018-10-02T13:51:56.202Z,13.47
2018-10-02T13:54:26.443Z,13.72
2018-10-02T13:56:56.671Z,13.97
2018-10-02T13:59:27.189Z,13.85
2018-10-02T14:01:57.433Z,13.83
2018-10-02T14:04:27.806Z,14.09
2018-10-02T14:06:58.300Z,13.81
2018-10-02T14:09:28.941Z,14.00
2018-10-02T14:11:59.989Z,13.86
2018-10-02T14:14:30.777Z,13.67
2018-10-02T14:17:01.189Z,13.50
2018-10-02T14:19:31.577Z,13.99
2018-10-02T14:22:01.868Z,14.28
2018-10-02T14:24:32.701Z,14.07
2018-10-02T14:27:02.918Z,13.47
2018-10-02T14:29:34.375Z,13.57
2018-10-02T14:32:04.904Z,13.77
2018-10-02T14:34:35.545Z,13.93
2018-10-02T14:37:07.932Z,13.76
2018-10-02T14:39:38.237Z,13.37
2018-10-02T14:42:08.774Z,13.47
2018-10-02T14:44:39.997Z,13.51
2018-10-02T14:47:10.488Z,13.51
2018-10-02T14:49:41.033Z,13.24
2018-10-02T14:52:11.558Z,13.45
2018-10-02T14:54:42.277Z,13.46
2018-10-02T14:57:12.813Z,13.72
2018-10-02T14:59:43.344Z,13.54
2018-10-02T15:02:13.615Z,13.48
2018-10-02T15:04:44.293Z,13.12
2018-10-02T15:07:14.589Z,12.96
2018-10-02T15:09:45.173Z,13.13
2018-10-02T15:12:15.812Z,13.30
2018-10-02T15:14:46.501Z,13.07
2018-10-02T15:17:17.008Z,13.10
2018-10-02T15:19:47.527Z,12.94
2018-10-02T15:22:18.835Z,12.92
2018-10-02T15:24:49.503Z,12.86
2018-10-02T15:27:19.755Z,12.67
2018-10-02T15:29:49.976Z,12.74
2018-10-02T15:32:20.226Z,12.81
2018-10-02T15:34:50.753Z,12.95
2018-10-02T15:37:21.776Z,12.69
2018-10-02T15:39:52.467Z,12.61
2018-10-02T15:42:23.754Z,12.64
2018-10-02T15:44:54.298Z,12.45
2018-10-02T15:47:24.776Z,12.31
2018-10-02T15:49:55.941Z,12.34
2018-10-02T15:52:26.564Z,12.45
2018-10-02T15:54:56.818Z,12.48
2018-10-02T15:57:27.484Z,12.62
2018-10-02T15:59:57.793Z,12.47
2018-10-02T16:02:29.339Z,12.54
2018-10-02T16:04:59.621Z,12.57
2018-10-02T16:07:29.858Z,12.34
2018-10-02T16:10:00.643Z,12.46
2018-10-02T16:12:30.969Z,12.62
2018-10-02T16:15:01.582Z,12.53
2018-10-02T16:17:31.862Z,12.60
2018-10-02T16:20:02.574Z,13.02
2018-10-02T16:22:32.862Z,12.90
2018-10-02T16:25:03.490Z,12.60
2018-10-02T16:27:33.761Z,12.51
2018-10-02T16:30:04.244Z,12.55
2018-10-02T16:32:35.082Z,12.57
2018-10-02T16:35:05.346Z,12.56
2018-10-02T16:37:35.885Z,12.32
2018-10-02T16:40:07.072Z,12.44
2018-10-02T16:42:37.620Z,12.49
2018-10-02T16:45:08.863Z,12.52
2018-10-02T16:47:39.423Z,12.53
2018-10-02T16:50:09.856Z,12.71
2018-10-02T16:52:40.362Z,12.77
2018-10-02T16:55:10.593Z,12.65
2018-10-02T16:57:40.925Z,12.44
2018-10-02T17:00:11.345Z,12.53
2018-10-02T17:02:41.977Z,12.82
2018-10-02T17:05:12.245Z,11.99
2018-10-02T17:07:43.061Z,11.92
2018-10-02T17:10:13.457Z,11.90
2018-10-02T17:12:44.139Z,12.21
2018-10-02T17:15:14.780Z,12.31
2018-10-02T17:17:45.325Z,11.73
2018-10-02T17:20:15.930Z,11.53
2018-10-02T17:22:46.582Z,11.54
2018-10-02T17:25:17.195Z,11.53
2018-10-02T17:27:47.792Z,11.51
2018-10-02T17:30:18.047Z,11.56
2018-10-02T17:32:52.594Z,11.92
2018-10-02T17:35:23.694Z,12.04
2018-10-02T17:37:54.224Z,11.58
2018-10-02T17:40:24.756Z,11.64
2018-10-02T17:42:55.734Z,11.47
2018-10-02T17:45:26.486Z,11.34
2018-10-02T17:47:57.213Z,11.28
2018-10-02T17:50:27.837Z,11.43
2018-10-02T17:52:58.376Z,11.30
2018-10-02T17:55:28.953Z,11.83
2018-10-02T17:57:59.455Z,11.46
2018-10-02T18:00:29.977Z,11.72
2018-10-02T18:03:00.681Z,11.44
2018-10-02T18:05:30.961Z,11.43
2018-10-02T18:08:01.184Z,11.32
2018-10-02T18:10:31.738Z,11.37
2018-10-02T18:13:02.634Z,11.28
2018-10-02T18:15:32.946Z,11.16
2018-10-02T18:18:03.613Z,11.10
2018-10-02T18:20:33.871Z,11.19
2018-10-02T18:23:04.387Z,11.24
2018-10-02T18:25:34.915Z,11.23
2018-10-02T18:28:05.782Z,11.39
2018-10-02T18:30:36.584Z,11.31
2018-10-02T18:33:06.906Z,11.26
2018-10-02T18:35:37.298Z,11.17
2018-10-02T18:38:07.944Z,11.32
2018-10-02T18:40:38.390Z,11.13
2018-10-02T18:43:09.519Z,11.01
2018-10-02T18:45:40.016Z,11.02
2018-10-02T18:48:10.738Z,10.94
2018-10-02T18:50:41.297Z,10.93
2018-10-02T18:53:11.903Z,10.72
2018-10-02T18:55:42.498Z,10.42
2018-10-02T18:58:12.777Z,10.39
2018-10-02T19:00:43.472Z,10.49
2018-10-02T19:03:14.002Z,10.44
2018-10-02T19:05:44.541Z,10.44
2018-10-02T19:08:19.116Z,10.36
2018-10-02T19:10:49.726Z,10.31
2018-10-02T19:13:20.554Z,10.44
2018-10-02T19:15:56.412Z,10.32
2018-10-02T19:18:27.104Z,10.57
2018-10-02T19:20:57.643Z,10.46
2018-10-02T19:23:28.393Z,10.90
2018-10-02T19:26:05.078Z,10.75
2018-10-02T19:28:35.668Z,11.18
2018-10-02T19:31:11.519Z,11.51
2018-10-02T19:33:42.176Z,11.78
2018-10-02T19:36:12.450Z,12.08
2018-10-02T19:38:54.337Z,11.80
2018-10-02T19:41:25.228Z,11.12
2018-10-02T19:43:55.831Z,10.89
2018-10-02T19:46:59.666Z,10.79
2018-10-02T19:49:33.025Z,10.67
2018-10-02T19:52:08.578Z,10.63
2018-10-02T19:54:40.182Z,10.58
2018-10-02T19:57:18.489Z,10.92
2018-10-02T19:59:49.303Z,10.71
2018-10-02T20:02:20.174Z,10.72
2018-10-02T20:04:50.664Z,10.62
2018-10-02T20:07:21.268Z,10.46
2018-10-02T20:09:52.057Z,10.61
2018-10-02T20:12:22.866Z,10.45
2018-10-02T20:14:53.685Z,10.51
2018-10-02T20:17:24.263Z,10.60
2018-10-02T20:19:54.958Z,11.32
2018-10-02T20:22:25.946Z,11.21
2018-10-02T20:24:56.293Z,11.53
2018-10-02T20:27:26.887Z,11.73
2018-10-02T20:29:57.575Z,12.64
2018-10-02T20:32:28.209Z,12.81
2018-10-02T20:34:58.712Z,12.06
2018-10-02T20:37:29.261Z,12.02
2018-10-02T20:39:59.891Z,12.16
2018-10-02T20:42:30.228Z,12.58
2018-10-02T20:45:00.884Z,12.40
2018-10-02T20:47:31.345Z,12.33
2018-10-02T20:50:01.903Z,12.15
2018-10-02T20:52:32.659Z,12.43
2018-10-02T20:55:06.126Z,12.50
2018-10-02T20:57:36.898Z,12.67
2018-10-02T21:00:07.136Z,12.70
2018-10-02T21:02:39.163Z,12.83
2018-10-02T21:05:09.737Z,12.90
2018-10-02T21:07:40.319Z,12.93
2018-10-02T21:10:10.923Z,12.98
2018-10-02T21:12:41.673Z,13.04
2018-10-02T21:15:12.591Z,13.05
2018-10-02T21:17:43.860Z,13.05
2018-10-02T21:20:15.820Z,13.03
2018-10-02T21:22:47.161Z,13.13
2018-10-02T21:25:17.959Z,13.12
2018-10-02T21:27:51.370Z,12.88
2018-10-02T21:30:23.328Z,13.15
2018-10-02T21:32:56.462Z,13.06
2018-10-02T21:35:27.899Z,13.11
2018-10-02T21:37:59.036Z,13.04
2018-10-02T21:40:31.146Z,13.14
2018-10-02T21:43:02.591Z,13.12
2018-10-02T21:45:34.764Z,12.97
2018-10-02T21:48:05.409Z,13.20
2018-10-02T21:50:36.786Z,13.27
2018-10-02T21:53:08.567Z,13.17
2018-10-02T21:55:40.868Z,13.08
2018-10-02T21:58:11.245Z,13.08
2018-10-02T22:00:41.818Z,13.02
2018-10-02T22:03:12.353Z,13.08
2018-10-02T22:05:42.603Z,13.13
2018-10-02T22:08:12.893Z,13.05
2018-10-02T22:10:43.125Z,13.11
2018-10-02T22:13:14.289Z,13.14
2018-10-02T22:15:44.807Z,13.00
2018-10-02T22:18:15.334Z,13.15
2018-10-02T22:20:46.005Z,13.09
2018-10-02T22:23:17.281Z,13.22
2018-10-02T22:25:47.893Z,13.06
2018-10-02T22:28:18.609Z,13.22
2018-10-02T22:30:49.105Z,13.20
2018-10-02T22:33:19.704Z,13.17
2018-10-02T22:35:50.403Z,13.36
2018-10-02T22:38:21.281Z,13.21
2018-10-02T22:40:52.090Z,13.30
2018-10-02T22:43:22.582Z,13.08
2018-10-02T22:45:53.175Z,13.13
2018-10-02T22:48:23.746Z,13.23
2018-10-02T22:50:54.281Z,13.16
2018-10-02T22:53:25.092Z,13.37
2018-10-02T22:55:55.634Z,13.07
2018-10-02T22:58:26.853Z,13.33
2018-10-02T23:00:57.157Z,13.20
2018-10-02T23:03:27.788Z,13.46
2018-10-02T23:05:58.625Z,13.38
2018-10-02T23:08:29.190Z,13.30
2018-10-02T23:10:59.479Z,13.30
2018-10-02T23:13:29.774Z,13.27
2018-10-02T23:16:00.265Z,13.31
2018-10-02T23:18:30.820Z,13.34
2018-10-02T23:21:01.332Z,13.30
2018-10-02T23:23:32.818Z,13.29
2018-10-02T23:26:03.601Z,13.41
2018-10-02T23:28:34.158Z,13.51
2018-10-02T23:31:04.547Z,13.51
2018-10-02T23:33:35.068Z,13.46
2018-10-02T23:36:05.346Z,13.27
2018-10-02T23:38:35.616Z,13.30
2018-10-02T23:41:06.688Z,13.17
2018-10-02T23:43:37.608Z,13.16
2018-10-02T23:46:08.659Z,13.23
2018-10-02T23:48:40.092Z,13.51
2018-10-02T23:51:10.545Z,13.66
2018-10-02T23:53:41.053Z,13.59
2018-10-02T23:56:11.577Z,13.49
2018-10-02T23:58:41.810Z,13.48
